読者です 読者をやめる 読者になる 読者になる

今朝の羽田(2017/03/10)

ANA968/JA802A(B788)

ANA822/JA627A(B763) with winglet

JAL34/JA733J(B772) JET KEI c/s

ANA880/JA872A(B789)

ANA844/JA882A(B789)

*TTW217/B-50001(A320)

JAL36/JA702J(B772)

SIA636/9V-SWV(B77W)

ANA8554/JA824A(B788)

ANA850/JA887A(B789)

*APJ1029/JA814P(A320)

*JAL4691/JA303J(B738)GRANP

*SNJ9001/JA804X(B738)

ANA856/JA886A(B789)

THA682/HS-TGA(B744)

*AAR177/HL8279(A321)

*(CL60)

*KAL720/HL8249(B739)

JAL70/JA831J(B788)

*HKE625/B-LCD(A320)

ANA8558/JA8323(B763)

ANA204/JA791A(B77W)

RJTT 092000Z 29005KT 9999 FEW040 05/M04 Q1007 NOSIG RMK 1SC040 A2974

RJTT 092100Z 34006KT 9999 FEW030 05/M03 Q1007 NOSIG RMK 1CU030 A2976

RJTT 092200Z 28003KT 9999 FEW030 06/M03 Q1008 NOSIG RMK 1CU030 A2977

今朝の羽田は晴れています。